Hlavní strana
METAR-TAF:

METAR-TAF

Letiště :

Memmingen, Německo

zeměpisná šířka: 47-59-33N, zeměpisná délka: 10-14-37E, výška: 633 m

Aktuální stav počasí

Zpráva byla vytvořena před 29 minutami, v 07:20 UTC
Východoseverovýchodní vítr 9 kt, proměnlivý mezi severoseverovýchodním a východním
Teplota 21°C
Vlhkost vzduchu 73%
Tlak 1016 hPa
Viditelnost 10 km a více
Žádná oblačnost pod 1500 m, nevyskytují se cumulonimby.

METAR: EDJA 190720Z 06009KT 030V090 CAVOK 21/16 Q1016

Čas: 09:49 (07:49 UTC)

Předpověď počasí

Zpráva byla vytvořena před 2 hodinami a 49 minutami, v 05:00 UTC
Předpověď platná od 19 v 06 UTC do 19 v 15 UTC
Východní vítr 5 kt
Viditelnost 10 km a více
Žádná oblačnost pod 1500 m, nevyskytují se cumulonimby.
Změna
od 19 v 10 UTC do 19 v 12 UTC
Západní vítr 5 kt
Pravděpodobnost 30% :
Dočasný
od 19 v 12 UTC do 19 v 15 UTC
Západní vítr 10 kt

TAF: EDJA 190500Z 1906/1915 09005KT CAVOK BECMG 1910/1912 26005KT PROB30 TEMPO 1912/1915 27010KT

Stav a předpovědi počasí z více než 4 000 letišť (zprávy METAR a TAF).

Červené a žluté tečky na mapě představují dostupné meteorologické stanice.

Když kurzor umístíte na tečku, zobrazí se název stanice.

Pak kliknutím zobrazíte stav a předpověď počasí.

Chcete-li změnit mapu, kliknutím na zelené tlačítko se znaménkem +mapu přiblížíte, kliknutím na zelené tlačítko se znaménkem – mapu oddálíte a kliknutím na zelené šipky přejdete na sousední mapy.


METAR-TAF: